WZZ81AM LHBP-LWSK
Flight info
| Callsign | WZZ81AM |
|---|---|
| Flight time | 1h 5m |
| Altitude | 37000 |
| Route | FAHAZ DCT KEROP DCT REDVA UL616 KOGAT |
| Aircraft | A320/M-SDE1E2E3FGIJ1J4RWXY/LB1 |
Departure
| Time | 2026-04-23 14:45 |
|---|---|
| Airport | Budapest Liszt Ferenc International Airport (LHBP) |
Arrival
| Time | 2026-04-23 15:50 |
|---|---|
| Airport | Skopje International Airport (LWSK) |
| Time | Latitude | Longitude | Altitude | Speed | Heading |
|---|---|---|---|---|---|
| 2026-04-23 14:18 | 47.43356 | 19.25841 | 471 ft | 0 kts | 221° |
| 2026-04-23 14:37 | 47.43357 | 19.25842 | 471 ft | 1 kts | 220° |
| 2026-04-23 14:37 | 47.43366 | 19.25859 | 471 ft | 2 kts | 235° |
| 2026-04-23 14:37 | 47.43375 | 19.25877 | 472 ft | 2 kts | 231° |
| 2026-04-23 14:38 | 47.43384 | 19.25894 | 472 ft | 2 kts | 232° |
| 2026-04-23 14:38 | 47.43393 | 19.25912 | 473 ft | 2 kts | 232° |
| 2026-04-23 14:38 | 47.43402 | 19.25930 | 473 ft | 2 kts | 232° |
| 2026-04-23 14:38 | 47.43412 | 19.25947 | 473 ft | 2 kts | 232° |
| 2026-04-23 14:39 | 47.43421 | 19.25964 | 473 ft | 2 kts | 232° |
| 2026-04-23 14:39 | 47.43428 | 19.25979 | 473 ft | 1 kts | 232° |
| 2026-04-23 14:39 | 47.43434 | 19.25990 | 474 ft | 1 kts | 232° |
| 2026-04-23 14:39 | 47.43438 | 19.25997 | 474 ft | 1 kts | 224° |
| 2026-04-23 14:40 | 47.43439 | 19.25999 | 474 ft | 0 kts | 223° |
| 2026-04-23 14:41 | 47.43438 | 19.25998 | 474 ft | 2 kts | 223° |
| 2026-04-23 14:41 | 47.43421 | 19.25936 | 473 ft | 9 kts | 299° |
| 2026-04-23 14:42 | 47.43453 | 19.25880 | 473 ft | 6 kts | 311° |
| 2026-04-23 14:42 | 47.43486 | 19.25803 | 473 ft | 9 kts | 301° |
| 2026-04-23 14:42 | 47.43520 | 19.25742 | 473 ft | 6 kts | 313° |
| 2026-04-23 14:42 | 47.43541 | 19.25669 | 472 ft | 9 kts | 259° |
| 2026-04-23 14:43 | 47.43473 | 19.25560 | 469 ft | 23 kts | 221° |
| 2026-04-23 14:43 | 47.43339 | 19.25382 | 464 ft | 26 kts | 223° |
| 2026-04-23 14:43 | 47.43198 | 19.25191 | 455 ft | 24 kts | 222° |
| 2026-04-23 14:43 | 47.43153 | 19.25130 | 453 ft | 0 kts | 223° |
| 2026-04-23 14:44 | 47.43150 | 19.25127 | 453 ft | 1 kts | 223° |
| 2026-04-23 14:44 | 47.43113 | 19.25075 | 451 ft | 11 kts | 223° |
| 2026-04-23 14:44 | 47.43067 | 19.25007 | 449 ft | 7 kts | 237° |
| 2026-04-23 14:44 | 47.43101 | 19.24936 | 448 ft | 18 kts | 313° |
| 2026-04-23 14:45 | 47.43357 | 19.24525 | 441 ft | 89 kts | 311° |
| 2026-04-23 14:45 | 47.43915 | 19.23612 | 483 ft | 142 kts | 313° |
| 2026-04-23 14:45 | 47.44569 | 19.22513 | 1034 ft | 147 kts | 313° |
| 2026-04-23 14:45 | 47.45232 | 19.21390 | 1805 ft | 145 kts | 313° |
| 2026-04-23 14:46 | 47.45901 | 19.20296 | 2443 ft | 151 kts | 315° |
| 2026-04-23 14:46 | 47.46660 | 19.19124 | 2952 ft | 167 kts | 317° |
| 2026-04-23 14:46 | 47.47501 | 19.17847 | 3481 ft | 185 kts | 314° |
| 2026-04-23 14:46 | 47.48365 | 19.16275 | 3865 ft | 214 kts | 302° |
| 2026-04-23 14:47 | 47.48608 | 19.13983 | 4313 ft | 254 kts | 263° |
| 2026-04-23 14:47 | 47.47910 | 19.11457 | 5031 ft | 273 kts | 252° |
| 2026-04-23 14:47 | 47.47192 | 19.08890 | 5985 ft | 273 kts | 256° |
| 2026-04-23 14:47 | 47.46541 | 19.06268 | 6813 ft | 279 kts | 250° |
| 2026-04-23 14:48 | 47.45286 | 19.03962 | 7335 ft | 305 kts | 220° |
| 2026-04-23 14:48 | 47.43354 | 19.02665 | 8357 ft | 311 kts | 193° |
| 2026-04-23 14:48 | 47.41184 | 19.02438 | 9221 ft | 315 kts | 183° |
| 2026-04-23 14:48 | 47.39042 | 19.02024 | 10068 ft | 317 kts | 194° |
| 2026-04-23 14:49 | 47.36924 | 19.01065 | 10754 ft | 324 kts | 202° |
| 2026-04-23 14:49 | 47.34819 | 18.99737 | 11367 ft | 333 kts | 206° |
| 2026-04-23 14:49 | 47.32723 | 18.98264 | 12095 ft | 337 kts | 207° |
| 2026-04-23 14:49 | 47.30616 | 18.96790 | 12817 ft | 340 kts | 206° |
| 2026-04-23 14:50 | 47.28470 | 18.95307 | 13509 ft | 344 kts | 206° |
| 2026-04-23 14:50 | 47.26274 | 18.93799 | 14186 ft | 349 kts | 206° |
| 2026-04-23 14:50 | 47.24082 | 18.92301 | 14844 ft | 353 kts | 206° |
| 2026-04-23 14:50 | 47.21858 | 18.90782 | 15516 ft | 356 kts | 205° |
| 2026-04-23 14:51 | 47.19599 | 18.89241 | 16186 ft | 359 kts | 205° |
| 2026-04-23 14:51 | 47.17338 | 18.87703 | 16811 ft | 362 kts | 205° |
| 2026-04-23 14:51 | 47.15040 | 18.86138 | 17433 ft | 366 kts | 205° |
| 2026-04-23 14:51 | 47.12714 | 18.84584 | 18050 ft | 369 kts | 201° |
| 2026-04-23 14:52 | 47.10200 | 18.83826 | 18599 ft | 370 kts | 176° |
| 2026-04-23 14:52 | 47.07754 | 18.84690 | 19201 ft | 363 kts | 149° |
| 2026-04-23 14:52 | 47.05681 | 18.86750 | 19821 ft | 359 kts | 138° |
| 2026-04-23 14:52 | 47.03731 | 18.88983 | 20355 ft | 363 kts | 138° |
| 2026-04-23 14:53 | 47.01722 | 18.91252 | 20921 ft | 367 kts | 140° |
| 2026-04-23 14:53 | 46.99649 | 18.93522 | 21477 ft | 370 kts | 141° |
| 2026-04-23 14:53 | 46.97585 | 18.95727 | 22012 ft | 374 kts | 141° |
| 2026-04-23 14:53 | 46.95459 | 18.97967 | 22542 ft | 377 kts | 142° |
| 2026-04-23 14:54 | 46.93323 | 19.00202 | 23054 ft | 380 kts | 142° |
| 2026-04-23 14:54 | 46.91182 | 19.02436 | 23566 ft | 383 kts | 142° |
| 2026-04-23 14:54 | 46.88985 | 19.04710 | 24058 ft | 386 kts | 143° |
| 2026-04-23 14:54 | 46.86718 | 19.06861 | 24547 ft | 389 kts | 145° |
| 2026-04-23 14:55 | 46.84419 | 19.09001 | 25025 ft | 391 kts | 145° |
| 2026-04-23 14:55 | 46.82117 | 19.11139 | 25495 ft | 393 kts | 144° |
| 2026-04-23 14:55 | 46.79807 | 19.13286 | 25907 ft | 396 kts | 144° |
| 2026-04-23 14:55 | 46.77499 | 19.15431 | 26021 ft | 396 kts | 144° |
| 2026-04-23 14:56 | 46.75186 | 19.17579 | 26037 ft | 396 kts | 144° |
| 2026-04-23 14:56 | 46.72864 | 19.19735 | 26359 ft | 400 kts | 144° |
| 2026-04-23 14:56 | 46.70509 | 19.21919 | 26920 ft | 399 kts | 144° |
| 2026-04-23 14:56 | 46.68171 | 19.24085 | 27407 ft | 400 kts | 144° |
| 2026-04-23 14:57 | 46.65827 | 19.26254 | 27843 ft | 402 kts | 144° |
| 2026-04-23 14:57 | 46.63451 | 19.28453 | 28268 ft | 404 kts | 144° |
| 2026-04-23 14:57 | 46.61086 | 19.30637 | 28693 ft | 405 kts | 144° |
| 2026-04-23 14:57 | 46.58720 | 19.32821 | 29088 ft | 407 kts | 144° |
| 2026-04-23 14:58 | 46.56337 | 19.35018 | 29482 ft | 409 kts | 144° |
| 2026-04-23 14:58 | 46.53916 | 19.37247 | 29859 ft | 411 kts | 144° |
| 2026-04-23 14:58 | 46.51526 | 19.39447 | 30230 ft | 413 kts | 144° |
| 2026-04-23 14:58 | 46.49086 | 19.41690 | 30617 ft | 414 kts | 144° |
| 2026-04-23 14:59 | 46.46665 | 19.43914 | 30944 ft | 416 kts | 144° |
| 2026-04-23 14:59 | 46.44223 | 19.46153 | 31241 ft | 418 kts | 144° |
| 2026-04-23 14:59 | 46.41782 | 19.48391 | 31545 ft | 420 kts | 144° |
| 2026-04-23 14:59 | 46.39290 | 19.50670 | 31854 ft | 421 kts | 144° |
| 2026-04-23 15:00 | 46.36839 | 19.52912 | 32127 ft | 423 kts | 144° |
| 2026-04-23 15:00 | 46.34339 | 19.55196 | 32408 ft | 425 kts | 143° |
| 2026-04-23 15:00 | 46.31839 | 19.57477 | 32673 ft | 427 kts | 143° |
| 2026-04-23 15:00 | 46.29325 | 19.59769 | 32931 ft | 429 kts | 144° |
| 2026-04-23 15:01 | 46.26796 | 19.62071 | 33201 ft | 431 kts | 143° |
| 2026-04-23 15:01 | 46.24215 | 19.64329 | 33453 ft | 434 kts | 146° |
| 2026-04-23 15:01 | 46.21540 | 19.66374 | 33709 ft | 437 kts | 150° |
| 2026-04-23 15:01 | 46.18763 | 19.68197 | 33956 ft | 440 kts | 154° |
| 2026-04-23 15:02 | 46.15909 | 19.69768 | 34233 ft | 442 kts | 158° |
| 2026-04-23 15:02 | 46.12988 | 19.71088 | 34624 ft | 442 kts | 161° |
| 2026-04-23 15:02 | 46.10021 | 19.72145 | 35005 ft | 443 kts | 165° |
| 2026-04-23 15:02 | 46.06987 | 19.73040 | 35347 ft | 442 kts | 166° |
| 2026-04-23 15:03 | 46.03999 | 19.73913 | 35661 ft | 442 kts | 166° |
| 2026-04-23 15:03 | 46.00953 | 19.74805 | 35980 ft | 442 kts | 166° |
| 2026-04-23 15:03 | 45.97961 | 19.75683 | 36275 ft | 442 kts | 166° |
| 2026-04-23 15:03 | 45.94937 | 19.76570 | 36529 ft | 443 kts | 166° |
| 2026-04-23 15:04 | 45.91901 | 19.77461 | 36742 ft | 445 kts | 166° |
| 2026-04-23 15:04 | 45.88865 | 19.78350 | 36939 ft | 447 kts | 166° |
| 2026-04-23 15:04 | 45.82751 | 19.80141 | 37037 ft | 450 kts | 166° |
| 2026-04-23 15:05 | 45.76625 | 19.81930 | 37043 ft | 450 kts | 166° |
| 2026-04-23 15:05 | 45.70513 | 19.83711 | 37039 ft | 450 kts | 166° |
| 2026-04-23 15:06 | 45.64371 | 19.85498 | 37041 ft | 450 kts | 166° |
| 2026-04-23 15:06 | 45.58230 | 19.87282 | 37041 ft | 450 kts | 166° |
| 2026-04-23 15:07 | 45.52105 | 19.89057 | 36769 ft | 450 kts | 166° |
| 2026-04-23 15:07 | 45.49018 | 19.89951 | 36954 ft | 452 kts | 166° |
| 2026-04-23 15:07 | 45.45925 | 19.90845 | 37008 ft | 453 kts | 166° |
| 2026-04-23 15:08 | 45.42857 | 19.91729 | 37256 ft | 454 kts | 166° |
| 2026-04-23 15:08 | 45.39772 | 19.92616 | 36877 ft | 453 kts | 166° |
| 2026-04-23 15:08 | 45.36673 | 19.93505 | 36989 ft | 454 kts | 166° |
| 2026-04-23 15:09 | 45.30458 | 19.95291 | 37035 ft | 455 kts | 166° |
| 2026-04-23 15:09 | 45.24290 | 19.97058 | 37049 ft | 454 kts | 165° |
| 2026-04-23 15:10 | 45.18109 | 19.98829 | 37056 ft | 455 kts | 166° |
| 2026-04-23 15:10 | 45.11935 | 20.00593 | 37054 ft | 454 kts | 165° |
| 2026-04-23 15:11 | 45.05734 | 20.02358 | 37047 ft | 454 kts | 165° |
| 2026-04-23 15:11 | 44.99538 | 20.04120 | 37047 ft | 454 kts | 165° |
| 2026-04-23 15:12 | 44.93373 | 20.05869 | 37046 ft | 454 kts | 165° |
| 2026-04-23 15:12 | 44.87145 | 20.07633 | 37045 ft | 454 kts | 165° |
| 2026-04-23 15:13 | 44.80942 | 20.09386 | 37047 ft | 454 kts | 165° |
| 2026-04-23 15:13 | 44.74773 | 20.11127 | 37043 ft | 455 kts | 165° |
| 2026-04-23 15:14 | 44.68538 | 20.12879 | 37047 ft | 455 kts | 165° |
| 2026-04-23 15:14 | 44.62351 | 20.14615 | 37045 ft | 455 kts | 165° |
| 2026-04-23 15:15 | 44.56149 | 20.16352 | 37050 ft | 455 kts | 165° |
| 2026-04-23 15:15 | 44.49963 | 20.18081 | 37048 ft | 455 kts | 165° |
| 2026-04-23 15:16 | 44.43761 | 20.19811 | 37054 ft | 455 kts | 165° |
| 2026-04-23 15:16 | 44.37558 | 20.21537 | 37055 ft | 455 kts | 165° |
| 2026-04-23 15:17 | 44.31366 | 20.23255 | 37056 ft | 454 kts | 165° |
| 2026-04-23 15:17 | 44.25178 | 20.24969 | 37056 ft | 455 kts | 165° |
| 2026-04-23 15:18 | 44.18987 | 20.26681 | 37061 ft | 455 kts | 165° |
| 2026-04-23 15:18 | 44.12790 | 20.28395 | 37059 ft | 455 kts | 165° |
| 2026-04-23 15:19 | 44.06576 | 20.30105 | 37058 ft | 456 kts | 165° |
| 2026-04-23 15:19 | 44.00394 | 20.31803 | 37056 ft | 456 kts | 165° |
| 2026-04-23 15:20 | 43.94185 | 20.33505 | 37062 ft | 455 kts | 165° |
| 2026-04-23 15:20 | 43.87970 | 20.35205 | 37063 ft | 455 kts | 164° |
| 2026-04-23 15:21 | 43.81737 | 20.36906 | 37061 ft | 454 kts | 164° |
| 2026-04-23 15:21 | 43.76400 | 20.38359 | 37060 ft | 454 kts | 164° |
| 2026-04-23 15:23 | 43.70366 | 20.39998 | 37058 ft | 454 kts | 164° |
| 2026-04-23 15:23 | 43.69260 | 20.40298 | 37053 ft | 454 kts | 164° |
| 2026-04-23 15:24 | 43.63776 | 20.41788 | 37058 ft | 454 kts | 164° |
| 2026-04-23 15:24 | 43.57578 | 20.43467 | 37059 ft | 454 kts | 164° |
| 2026-04-23 15:25 | 43.51355 | 20.45148 | 37057 ft | 453 kts | 164° |
| 2026-04-23 15:25 | 43.45206 | 20.46805 | 37056 ft | 453 kts | 164° |
| 2026-04-23 15:26 | 43.39027 | 20.48469 | 37052 ft | 452 kts | 164° |
| 2026-04-23 15:26 | 43.32845 | 20.50131 | 37048 ft | 455 kts | 164° |
| 2026-04-23 15:27 | 43.26633 | 20.51797 | 37046 ft | 457 kts | 164° |
| 2026-04-23 15:27 | 43.23513 | 20.52631 | 36856 ft | 455 kts | 164° |
| 2026-04-23 15:27 | 43.20410 | 20.53460 | 35920 ft | 460 kts | 163° |
| 2026-04-23 15:27 | 43.17264 | 20.54300 | 35006 ft | 459 kts | 163° |
| 2026-04-23 15:28 | 43.14185 | 20.55119 | 34079 ft | 453 kts | 163° |
| 2026-04-23 15:28 | 43.11124 | 20.55933 | 33120 ft | 445 kts | 163° |
| 2026-04-23 15:28 | 43.08127 | 20.56728 | 32586 ft | 434 kts | 163° |
| 2026-04-23 15:28 | 43.05192 | 20.57512 | 32090 ft | 430 kts | 162° |
| 2026-04-23 15:29 | 43.02305 | 20.58421 | 31587 ft | 423 kts | 159° |
| 2026-04-23 15:29 | 42.99501 | 20.59556 | 31089 ft | 417 kts | 154° |
| 2026-04-23 15:29 | 42.96829 | 20.60888 | 30595 ft | 412 kts | 152° |
| 2026-04-23 15:29 | 42.94181 | 20.62288 | 30069 ft | 409 kts | 151° |
| 2026-04-23 15:30 | 42.91525 | 20.63697 | 29529 ft | 406 kts | 151° |
| 2026-04-23 15:30 | 42.88913 | 20.65081 | 28994 ft | 403 kts | 152° |
| 2026-04-23 15:30 | 42.86300 | 20.66464 | 28462 ft | 400 kts | 152° |
| 2026-04-23 15:30 | 42.83683 | 20.67845 | 27928 ft | 397 kts | 152° |
| 2026-04-23 15:31 | 42.81149 | 20.69180 | 27408 ft | 395 kts | 152° |
| 2026-04-23 15:31 | 42.78593 | 20.70526 | 26877 ft | 392 kts | 152° |
| 2026-04-23 15:31 | 42.76053 | 20.71859 | 26350 ft | 389 kts | 152° |
| 2026-04-23 15:31 | 42.73537 | 20.73181 | 25822 ft | 387 kts | 152° |
| 2026-04-23 15:32 | 42.71065 | 20.74477 | 25302 ft | 384 kts | 152° |
| 2026-04-23 15:32 | 42.68563 | 20.75789 | 24772 ft | 382 kts | 152° |
| 2026-04-23 15:32 | 42.66121 | 20.77069 | 24248 ft | 380 kts | 152° |
| 2026-04-23 15:32 | 42.63641 | 20.78368 | 23712 ft | 378 kts | 152° |
| 2026-04-23 15:33 | 42.61195 | 20.79647 | 23201 ft | 376 kts | 152° |
| 2026-04-23 15:33 | 42.58780 | 20.80911 | 22695 ft | 374 kts | 152° |
| 2026-04-23 15:33 | 42.56355 | 20.82180 | 22183 ft | 372 kts | 152° |
| 2026-04-23 15:33 | 42.53945 | 20.83438 | 21673 ft | 371 kts | 152° |
| 2026-04-23 15:34 | 42.51562 | 20.84682 | 21169 ft | 370 kts | 153° |
| 2026-04-23 15:34 | 42.49166 | 20.85931 | 20658 ft | 369 kts | 153° |
| 2026-04-23 15:34 | 42.46807 | 20.87159 | 20158 ft | 368 kts | 153° |
| 2026-04-23 15:34 | 42.44419 | 20.88401 | 19655 ft | 367 kts | 153° |
| 2026-04-23 15:35 | 42.42045 | 20.89634 | 19142 ft | 366 kts | 154° |
| 2026-04-23 15:35 | 42.39655 | 20.90875 | 18631 ft | 366 kts | 154° |
| 2026-04-23 15:35 | 42.37277 | 20.92108 | 18125 ft | 365 kts | 154° |
| 2026-04-23 15:35 | 42.34936 | 20.93321 | 17637 ft | 364 kts | 154° |
| 2026-04-23 15:36 | 42.32564 | 20.94549 | 17146 ft | 364 kts | 154° |
| 2026-04-23 15:36 | 42.30226 | 20.95757 | 16654 ft | 363 kts | 154° |
| 2026-04-23 15:36 | 42.27882 | 20.96972 | 16165 ft | 362 kts | 155° |
| 2026-04-23 15:36 | 42.25520 | 20.98192 | 15671 ft | 361 kts | 155° |
| 2026-04-23 15:37 | 42.23181 | 20.99401 | 15175 ft | 360 kts | 155° |
| 2026-04-23 15:37 | 42.20859 | 21.00597 | 14674 ft | 359 kts | 155° |
| 2026-04-23 15:37 | 42.18542 | 21.01792 | 14197 ft | 357 kts | 156° |
| 2026-04-23 15:37 | 42.16241 | 21.02973 | 13844 ft | 351 kts | 156° |
| 2026-04-23 15:38 | 42.13966 | 21.04143 | 13278 ft | 353 kts | 156° |
| 2026-04-23 15:38 | 42.11773 | 21.05628 | 12669 ft | 349 kts | 139° |
| 2026-04-23 15:38 | 42.10288 | 21.08073 | 12089 ft | 341 kts | 112° |
| 2026-04-23 15:38 | 42.09410 | 21.11026 | 11513 ft | 340 kts | 108° |
| 2026-04-23 15:39 | 42.08567 | 21.13981 | 10935 ft | 341 kts | 108° |
| 2026-04-23 15:39 | 42.07701 | 21.16945 | 10355 ft | 342 kts | 109° |
| 2026-04-23 15:39 | 42.06820 | 21.19897 | 9775 ft | 343 kts | 110° |
| 2026-04-23 15:39 | 42.05924 | 21.22855 | 9183 ft | 344 kts | 110° |
| 2026-04-23 15:40 | 42.05027 | 21.25796 | 8602 ft | 335 kts | 110° |
| 2026-04-23 15:40 | 42.04152 | 21.28644 | 8008 ft | 319 kts | 110° |
| 2026-04-23 15:40 | 42.03329 | 21.31315 | 7426 ft | 305 kts | 109° |
| 2026-04-23 15:40 | 42.02540 | 21.33878 | 6848 ft | 293 kts | 109° |
| 2026-04-23 15:41 | 42.01780 | 21.36348 | 6306 ft | 282 kts | 109° |
| 2026-04-23 15:41 | 42.01040 | 21.38734 | 6034 ft | 273 kts | 111° |
| 2026-04-23 15:41 | 41.99990 | 21.40835 | 6006 ft | 279 kts | 135° |
| 2026-04-23 15:41 | 41.98340 | 21.42246 | 6023 ft | 283 kts | 152° |
| 2026-04-23 15:42 | 41.96554 | 21.43332 | 5833 ft | 279 kts | 154° |
| 2026-04-23 15:42 | 41.94743 | 21.44361 | 5457 ft | 281 kts | 155° |
| 2026-04-23 15:42 | 41.92950 | 21.45373 | 5129 ft | 281 kts | 154° |
| 2026-04-23 15:42 | 41.91246 | 21.46589 | 4812 ft | 279 kts | 146° |
| 2026-04-23 15:43 | 41.89703 | 21.48141 | 4515 ft | 276 kts | 137° |
| 2026-04-23 15:43 | 41.88254 | 21.49845 | 4212 ft | 274 kts | 133° |
| 2026-04-23 15:43 | 41.87056 | 21.51796 | 3941 ft | 270 kts | 121° |
| 2026-04-23 15:43 | 41.86056 | 21.53872 | 3665 ft | 268 kts | 118° |
| 2026-04-23 15:44 | 41.85054 | 21.56001 | 3372 ft | 268 kts | 119° |
| 2026-04-23 15:44 | 41.84039 | 21.58098 | 3093 ft | 267 kts | 120° |
| 2026-04-23 15:44 | 41.83021 | 21.60149 | 3006 ft | 267 kts | 120° |
| 2026-04-23 15:44 | 41.81979 | 21.62205 | 3005 ft | 268 kts | 121° |
| 2026-04-23 15:45 | 41.80934 | 21.64279 | 2998 ft | 268 kts | 116° |
| 2026-04-23 15:45 | 41.80436 | 21.66543 | 2975 ft | 239 kts | 82° |
| 2026-04-23 15:45 | 41.81003 | 21.68437 | 2966 ft | 210 kts | 40° |
| 2026-04-23 15:45 | 41.82219 | 21.69161 | 2960 ft | 183 kts | 355° |
| 2026-04-23 15:46 | 41.83341 | 21.68597 | 3117 ft | 166 kts | 333° |
| 2026-04-23 15:46 | 41.84245 | 21.67811 | 3127 ft | 145 kts | 330° |
| 2026-04-23 15:46 | 41.85041 | 21.67079 | 3012 ft | 137 kts | 329° |
| 2026-04-23 15:46 | 41.85833 | 21.66373 | 2805 ft | 133 kts | 333° |
| 2026-04-23 15:47 | 41.86652 | 21.65800 | 2635 ft | 134 kts | 337° |
| 2026-04-23 15:47 | 41.87515 | 21.65333 | 2453 ft | 134 kts | 341° |
| 2026-04-23 15:47 | 41.88407 | 21.64905 | 2265 ft | 141 kts | 345° |
| 2026-04-23 15:47 | 41.89343 | 21.64525 | 2058 ft | 138 kts | 346° |
| 2026-04-23 15:48 | 41.90258 | 21.64207 | 1834 ft | 135 kts | 348° |
| 2026-04-23 15:48 | 41.90485 | 21.64128 | 1771 ft | 134 kts | 344° |
| 2026-04-23 15:48 | 41.91199 | 21.63866 | 1608 ft | 134 kts | 347° |
| 2026-04-23 15:49 | 41.92075 | 21.63548 | 1435 ft | 128 kts | 348° |
| 2026-04-23 15:49 | 41.92969 | 21.63259 | 1265 ft | 133 kts | 348° |
| 2026-04-23 15:49 | 41.93854 | 21.62946 | 1066 ft | 132 kts | 346° |
| 2026-04-23 15:49 | 41.94758 | 21.62639 | 881 ft | 133 kts | 343° |
| 2026-04-23 15:50 | 41.95637 | 21.62328 | 777 ft | 125 kts | 343° |
| 2026-04-23 15:50 | 41.96323 | 21.62087 | 779 ft | 73 kts | 346° |
| 2026-04-23 15:50 | 41.96697 | 21.61960 | 780 ft | 50 kts | 346° |
| 2026-04-23 15:50 | 41.96957 | 21.61871 | 779 ft | 18 kts | 346° |
| 2026-04-23 15:51 | 41.96991 | 21.61967 | 780 ft | 14 kts | 125° |
| 2026-04-23 15:51 | 41.96932 | 21.62073 | 782 ft | 11 kts | 127° |
| 2026-04-23 15:51 | 41.96876 | 21.62157 | 782 ft | 11 kts | 149° |
| 2026-04-23 15:51 | 41.96786 | 21.62195 | 781 ft | 15 kts | 165° |
| 2026-04-23 15:52 | 41.96674 | 21.62237 | 781 ft | 17 kts | 167° |
| 2026-04-23 15:52 | 41.96549 | 21.62278 | 780 ft | 19 kts | 167° |
| 2026-04-23 15:52 | 41.96405 | 21.62326 | 781 ft | 24 kts | 166° |
| 2026-04-23 15:52 | 41.96289 | 21.62373 | 781 ft | 8 kts | 128° |
| 2026-04-23 15:53 | 41.96270 | 21.62455 | 781 ft | 10 kts | 126° |
| 2026-04-23 15:53 | 41.96198 | 21.62488 | 781 ft | 12 kts | 173° |
| 2026-04-23 15:53 | 41.96117 | 21.62511 | 781 ft | 4 kts | 163° |
| 2026-04-23 15:53 | 41.96103 | 21.62534 | 781 ft | 5 kts | 82° |
| 2026-04-23 15:54 | 41.96095 | 21.62547 | 780 ft | 3 kts | 225° |
| 2026-04-23 15:54 | 41.96055 | 21.62529 | 780 ft | 7 kts | 166° |
| 2026-04-23 15:54 | 41.96021 | 21.62557 | 780 ft | 6 kts | 94° |
| 2026-04-23 15:54 | 41.96032 | 21.62600 | 780 ft | 2 kts | 75° |
| 2026-04-23 15:55 | 41.96033 | 21.62609 | 780 ft | 0 kts | 77° |